Carnival Pride — H3VU — position and weather

sailwx.info

Track history (hours):
 
Tides and Currents Weather Stations Pressure Air Temp Water Temp Dewpoint Dewpoint Depression Visibility Wind Speed Wind Dir Waves Ship Positions

Carnival Pride

Operator: Carnival Cruise Lines

Last reported at 2014-Oct-21 23:32 UTC. Time now 2014-Oct-23 05:26 UTC.
Position N 27°10' W 079°21'.

Type: Ship. MMSI: 354215000.

Date/timePositionNaut miles runAvg speedWind from/ knotsBaromVisibWave heightAir tempDewpointWater temp
2014-Oct-21 23:32N 27°10' W 079°21'66617.0
2014-Oct-20 08:26N 37°56' W 076°09'4318.8
2014-Oct-20 06:09N 38°37' W 076°25'1118.5
2014-Oct-20 05:33N 38°48' W 076°25'1917.0
2014-Oct-20 04:25N 39°07' W 076°24'1012.0
2014-Oct-20 03:34N 39°15' W 076°33'439.1
2014-Oct-20 03:27N 39°11' W 076°32'6 6.6
2014-Oct-20 02:33N 39°16' W 076°36'6105.9
2014-Oct-20 02:30N 39°11' W 076°32'0 0.0
2014-Oct-20 01:31N 39°11' W 076°31'634.6
2014-Oct-20 01:21N 39°16' W 076°36'0 0.0
2014-Oct-20 00:33N 39°16' W 076°36'6212.8
2014-Oct-20 00:31N 39°11' W 076°32'6 4.6
2014-Oct-19 23:14N 39°16' W 076°36'0 0.0
2014-Oct-19 22:17N 39°16' W 076°36'0 0.0
2014-Oct-19 21:31N 39°16' W 076°36'0 0.0
2014-Oct-19 20:31N 39°16' W 076°36'0 0.0
2014-Oct-19 19:33N 39°16' W 076°36'0 0.0
2014-Oct-19 18:30N 39°16' W 076°36'0 0.0
2014-Oct-19 17:27N 39°16' W 076°36'0 0.2
2014-Oct-19 16:32N 39°16' W 076°36'0 0.0
2014-Oct-19 15:29N 39°16' W 076°36'0 0.0
2014-Oct-19 14:05N 39°16' W 076°36'0 0.0
2014-Oct-19 13:30N 39°16' W 076°36'1 1.0
2014-Oct-19 12:33N 39°15' W 076°35'1010.3
2014-Oct-19 11:33N 39°09' W 076°25'1514.8
2014-Oct-19 10:34N 38°54' W 076°24'4319.6
2014-Oct-19 08:22N 38°12' W 076°14'1620.0
2014-Oct-19 07:33N 37°56' W 076°09'3717.6
2014-Oct-19 05:26N 37°19' W 076°06'1415.9
2014-Oct-19 04:33N 37°05' W 076°06'1512.5
2014-Oct-19 03:23N 36°54' W 075°53'12618.5
2014-Oct-18 20:34N 34°49' W 075°33'2222.4
2014-Oct-18 19:34N 34°32' W 075°50'2221.8
2014-Oct-18 18:33N 34°15' W 076°07'2221.9
2014-Oct-18 17:32N 33°58' W 076°25'2521.4
2014-Oct-18 16:21N 33°39' W 076°44'1921.8
2014-Oct-18 15:28N 33°24' W 076°59'  
2014-Oct-13 09:32N 36°47' W 075°45'1614.8
2014-Oct-13 08:26N 36°58' W 075°60'1517.4
2014-Oct-13 07:33N 37°12' W 076°09'9217.6
2014-Oct-13 02:18N 38°43' W 076°26'1418.3
2014-Oct-13 01:33N 38°57' W 076°23'1414.3
2014-Oct-13 00:34N 39°11' W 076°26'9 9.0
2014-Oct-12 23:33N 39°16' W 076°36'0 0.1
2014-Oct-12 22:33N 39°16' W 076°36'0 0.0
2014-Oct-12 21:32N 39°16' W 076°36'0 0.0
2014-Oct-12 20:32N 39°16' W 076°36'0 0.0
2014-Oct-12 19:31N 39°16' W 076°36'0 0.0
2014-Oct-12 18:31N 39°16' W 076°36'0 0.0
2014-Oct-12 17:33N 39°16' W 076°36'0 0.0
2014-Oct-12 16:33N 39°16' W 076°36'0 0.0
2014-Oct-12 15:33N 39°16' W 076°36'0 0.0
2014-Oct-12 14:32N 39°16' W 076°36'0 0.0
2014-Oct-12 13:32N 39°16' W 076°36'0 0.0
2014-Oct-12 12:33N 39°16' W 076°36'7 7.0
2014-Oct-12 11:33N 39°12' W 076°29'1212.0
2014-Oct-12 10:34N 39°01' W 076°23'1615.9
2014-Oct-12 09:34N 38°45' W 076°26'8716.4
2014-Oct-12 04:14N 37°19' W 076°06'1116.4
2014-Oct-12 03:33N 37°09' W 076°09'1616.2
2014-Oct-12 02:32N 36°56' W 075°56'  
Track history (hours):
 
Tides and Currents Weather Stations Pressure Air Temp Water Temp Dewpoint Dewpoint Depression Visibility Wind Speed Wind Dir Waves Ship Positions

Carnival Pride

Operator: Carnival Cruise Lines

Last reported at 2014-Oct-21 23:32 UTC. Time now 2014-Oct-23 05:26 UTC.
Position N 27°10' W 079°21'.

Type: Ship. MMSI: 354215000.

Date/timePositionNaut miles runAvg speedWind from/ knotsBaromVisibWave heightAir tempDewpointWater temp
2014-Oct-21 23:32N 27°10' W 079°21'66617.0
2014-Oct-20 08:26N 37°56' W 076°09'4318.8
2014-Oct-20 06:09N 38°37' W 076°25'1118.5
2014-Oct-20 05:33N 38°48' W 076°25'1917.0
2014-Oct-20 04:25N 39°07' W 076°24'1012.0
2014-Oct-20 03:34N 39°15' W 076°33'439.1
2014-Oct-20 03:27N 39°11' W 076°32'6 6.6
2014-Oct-20 02:33N 39°16' W 076°36'6105.9
2014-Oct-20 02:30N 39°11' W 076°32'0 0.0
2014-Oct-20 01:31N 39°11' W 076°31'634.6
2014-Oct-20 01:21N 39°16' W 076°36'0 0.0
2014-Oct-20 00:33N 39°16' W 076°36'6212.8
2014-Oct-20 00:31N 39°11' W 076°32'6 4.6
2014-Oct-19 23:14N 39°16' W 076°36'0 0.0
2014-Oct-19 22:17N 39°16' W 076°36'0 0.0
2014-Oct-19 21:31N 39°16' W 076°36'0 0.0
2014-Oct-19 20:31N 39°16' W 076°36'0 0.0
2014-Oct-19 19:33N 39°16' W 076°36'0 0.0
2014-Oct-19 18:30N 39°16' W 076°36'0 0.0
2014-Oct-19 17:27N 39°16' W 076°36'0 0.2
2014-Oct-19 16:32N 39°16' W 076°36'0 0.0
2014-Oct-19 15:29N 39°16' W 076°36'0 0.0
2014-Oct-19 14:05N 39°16' W 076°36'0 0.0
2014-Oct-19 13:30N 39°16' W 076°36'1 1.0
2014-Oct-19 12:33N 39°15' W 076°35'1010.3
2014-Oct-19 11:33N 39°09' W 076°25'1514.8
2014-Oct-19 10:34N 38°54' W 076°24'4319.6
2014-Oct-19 08:22N 38°12' W 076°14'1620.0
2014-Oct-19 07:33N 37°56' W 076°09'3717.6
2014-Oct-19 05:26N 37°19' W 076°06'1415.9
2014-Oct-19 04:33N 37°05' W 076°06'1512.5
2014-Oct-19 03:23N 36°54' W 075°53'12618.5
2014-Oct-18 20:34N 34°49' W 075°33'2222.4
2014-Oct-18 19:34N 34°32' W 075°50'2221.8
2014-Oct-18 18:33N 34°15' W 076°07'2221.9
2014-Oct-18 17:32N 33°58' W 076°25'2521.4
2014-Oct-18 16:21N 33°39' W 076°44'1921.8
2014-Oct-18 15:28N 33°24' W 076°59'  
2014-Oct-13 09:32N 36°47' W 075°45'1614.8
2014-Oct-13 08:26N 36°58' W 075°60'1517.4
2014-Oct-13 07:33N 37°12' W 076°09'9217.6
2014-Oct-13 02:18N 38°43' W 076°26'1418.3
2014-Oct-13 01:33N 38°57' W 076°23'1414.3
2014-Oct-13 00:34N 39°11' W 076°26'9 9.0
2014-Oct-12 23:33N 39°16' W 076°36'0 0.1
2014-Oct-12 22:33N 39°16' W 076°36'0 0.0
2014-Oct-12 21:32N 39°16' W 076°36'0 0.0
2014-Oct-12 20:32N 39°16' W 076°36'0 0.0
2014-Oct-12 19:31N 39°16' W 076°36'0 0.0
2014-Oct-12 18:31N 39°16' W 076°36'0 0.0
2014-Oct-12 17:33N 39°16' W 076°36'0 0.0
2014-Oct-12 16:33N 39°16' W 076°36'0 0.0
2014-Oct-12 15:33N 39°16' W 076°36'0 0.0
2014-Oct-12 14:32N 39°16' W 076°36'0 0.0
2014-Oct-12 13:32N 39°16' W 076°36'0 0.0
2014-Oct-12 12:33N 39°16' W 076°36'7 7.0
2014-Oct-12 11:33N 39°12' W 076°29'1212.0
2014-Oct-12 10:34N 39°01' W 076°23'1615.9
2014-Oct-12 09:34N 38°45' W 076°26'8716.4
2014-Oct-12 04:14N 37°19' W 076°06'1116.4
2014-Oct-12 03:33N 37°09' W 076°09'1616.2
2014-Oct-12 02:32N 36°56' W 075°56'  

Dump ship's entire track history